Hauptseite
METAR-TAF:

METAR-TAF

Flughäfen :

Militärflugplatz Istrana

Treviso, Italien

Breite: 45-41N, Länge: 012-06E, Höhe: 45 m

Beobachtung

Neuester Wetterbericht von vor 34 Minuten, um 23:55 UTC
Wind 3 kt aus Nord/Nordwest
Temperatur 23°C
Luftfeuchtigkeit 78%
Luftdruck 1017 hPa
Sichtweite 10 km oder mehr
keine Wolken unter 1500 m und keine Kumulonimbus oder Gewitterwolken

METAR: LIPS 202355Z 34003KT CAVOK 23/19 Q1017 RMK SKC VIS MIN 9999 WIND THR26 28002KT WIND THR08 03002KT BLU

Zeit: 02:29 (00:29 UTC)

Prognose

Neuester Wetterbericht von vor 1 Stunde und 29 Minuten, um 23:00 UTC
Gültige Prognose vom 21 um 00 UTC bis 21 um 09 UTC
Wind 4 kt aus unterschiedlichen Richtungen
Sichtweite 10 km oder mehr
keine Wolken unter 1500 m und keine Kumulonimbus oder Gewitterwolken

TAF: LIPS 202300Z 2100/2109 VRB04KT CAVOK

Wetterbeobachtungen und Prognosen von mehr als 4000 Flughäfen (METAR und TAF Bericht).

Die verfügbaren Stationen werden durch gelbe und rote Markierungen auf der Karte dargestellt.

Führen Sie die Maus auf sie, um den Namen der Station zu sehen.

Darauf klicken, um die Beobachtung von Wetterbeobachtungen und Prognosen zu sehen.

Um die Karte zu ändern : klicken Sie auf den grünen Tasten mit einem schwarzen Kreuz Zum Vergrößern, auf den grünen Button mit einem Gedankenstrich zu verkleinern, oder auf die grünen Pfeile für benachbarte Karten.


METAR-TAF: